createdAt,value
2022-09-02T00:00:30.568Z,15.34
2022-09-02T00:01:34.354Z,15.28
2022-09-02T00:02:36.289Z,15.24
2022-09-02T00:03:38.272Z,15.27
2022-09-02T00:04:40.223Z,15.30
2022-09-02T00:05:42.331Z,15.34
2022-09-02T00:06:45.663Z,15.34
2022-09-02T00:07:47.500Z,15.35
2022-09-02T00:08:49.430Z,15.35
2022-09-02T00:09:51.235Z,15.32
2022-09-02T00:10:53.630Z,15.25
2022-09-02T00:11:56.147Z,15.23
2022-09-02T00:12:58.149Z,15.23
2022-09-02T00:14:03.062Z,15.23
2022-09-02T00:15:05.957Z,15.24
2022-09-02T00:16:08.591Z,15.26
2022-09-02T00:17:10.465Z,15.30
2022-09-02T00:18:15.305Z,15.30
2022-09-02T00:19:22.266Z,15.25
2022-09-02T00:20:24.464Z,15.16
2022-09-02T00:21:27.042Z,15.11
2022-09-02T00:22:28.875Z,15.15
2022-09-02T00:23:30.824Z,15.16
2022-09-02T00:24:32.888Z,15.20
2022-09-02T00:25:35.645Z,15.24
2022-09-02T00:26:37.481Z,15.27
2022-09-02T00:27:39.399Z,15.24
2022-09-02T00:28:51.093Z,15.23
2022-09-02T00:29:58.610Z,15.13
2022-09-02T00:31:00.538Z,15.14
2022-09-02T00:32:02.368Z,15.18
2022-09-02T00:33:04.944Z,15.15
2022-09-02T00:34:07.116Z,15.16
2022-09-02T00:35:10.367Z,15.10
2022-09-02T00:36:12.844Z,15.11
2022-09-02T00:37:14.717Z,15.09
2022-09-02T00:38:17.341Z,15.08
2022-09-02T00:39:19.832Z,15.10
2022-09-02T00:40:23.553Z,15.14
2022-09-02T00:41:26.856Z,15.08
2022-09-02T00:42:28.709Z,15.07
2022-09-02T00:43:42.731Z,15.02
2022-09-02T00:44:44.591Z,14.98
2022-09-02T00:45:46.488Z,14.94
2022-09-02T00:46:48.373Z,14.94
2022-09-02T00:47:52.856Z,14.96
2022-09-02T00:48:55.801Z,14.94
2022-09-02T00:49:58.734Z,14.95
2022-09-02T00:51:03.688Z,14.97
2022-09-02T00:52:11.954Z,14.99
2022-09-02T00:53:14.409Z,15.00
2022-09-02T00:54:17.150Z,14.95
2022-09-02T00:55:20.960Z,14.94
2022-09-02T00:56:25.391Z,14.94
2022-09-02T00:57:29.681Z,14.97
2022-09-02T00:58:33.764Z,14.97
2022-09-02T00:59:54.320Z,14.98
2022-09-02T01:00:58.049Z,15.01
2022-09-02T01:02:00.413Z,15.03
2022-09-02T01:03:04.308Z,15.01
2022-09-02T01:04:06.745Z,14.94
2022-09-02T01:05:11.111Z,14.94
2022-09-02T01:06:15.721Z,14.96
2022-09-02T01:07:17.526Z,14.97
2022-09-02T01:08:21.843Z,14.97
2022-09-02T01:09:23.729Z,14.95
2022-09-02T01:10:34.659Z,14.94
2022-09-02T01:11:39.244Z,14.96
2022-09-02T01:12:41.523Z,14.95
2022-09-02T01:13:43.781Z,14.85
2022-09-02T01:14:45.660Z,14.80
2022-09-02T01:15:49.577Z,14.74
2022-09-02T01:16:53.559Z,14.69
2022-09-02T01:17:55.384Z,14.67
2022-09-02T01:18:59.430Z,14.69
2022-09-02T01:20:12.139Z,14.68
2022-09-02T01:21:14.596Z,14.68
2022-09-02T01:22:17.990Z,14.67
2022-09-02T01:23:19.915Z,14.71
2022-09-02T01:24:23.725Z,14.74
2022-09-02T01:25:28.207Z,14.76
2022-09-02T01:26:30.084Z,14.77
2022-09-02T01:27:31.927Z,14.75
2022-09-02T01:28:33.920Z,14.67
2022-09-02T01:29:36.032Z,14.65
2022-09-02T01:30:41.625Z,14.62
2022-09-02T01:31:43.792Z,14.66
2022-09-02T01:32:45.726Z,14.67
2022-09-02T01:33:47.579Z,14.65
2022-09-02T01:34:49.320Z,14.64
2022-09-02T01:35:51.551Z,14.63
2022-09-02T01:36:53.386Z,14.64
2022-09-02T01:37:56.648Z,14.64
2022-09-02T01:38:58.662Z,14.64
2022-09-02T01:40:01.017Z,14.62
2022-09-02T01:41:02.826Z,14.64
2022-09-02T01:42:04.830Z,14.57
2022-09-02T01:43:09.755Z,14.59
2022-09-02T01:44:12.526Z,14.62
2022-09-02T01:45:15.545Z,14.63
2022-09-02T01:46:17.427Z,14.66
2022-09-02T01:47:24.387Z,14.68
2022-09-02T01:48:26.462Z,14.69
2022-09-02T01:49:28.257Z,14.65
2022-09-02T01:50:31.767Z,14.60
2022-09-02T01:51:33.594Z,14.60
2022-09-02T01:52:35.881Z,14.64
2022-09-02T01:53:37.662Z,14.67
2022-09-02T01:54:39.991Z,14.70
2022-09-02T01:55:42.086Z,14.71
2022-09-02T01:56:43.980Z,14.69
2022-09-02T01:57:46.106Z,14.69
2022-09-02T01:58:48.111Z,14.65
2022-09-02T01:59:49.900Z,14.66
2022-09-02T02:00:51.959Z,14.63
2022-09-02T02:01:54.727Z,14.63
2022-09-02T02:02:57.316Z,14.59
2022-09-02T02:03:59.406Z,14.55
2022-09-02T02:05:01.251Z,14.48
2022-09-02T02:06:07.918Z,14.45
2022-09-02T02:07:09.724Z,14.45
2022-09-02T02:08:11.604Z,14.47
2022-09-02T02:09:13.406Z,14.49
2022-09-02T02:10:17.704Z,14.55
2022-09-02T02:11:20.664Z,14.59
2022-09-02T02:12:22.543Z,14.62
2022-09-02T02:13:24.486Z,14.65
2022-09-02T02:14:26.361Z,14.65
2022-09-02T02:16:29.229Z,14.70
2022-09-02T02:17:31.089Z,14.71
2022-09-02T02:18:33.002Z,14.71
2022-09-02T02:19:35.624Z,14.71
2022-09-02T02:20:38.247Z,14.71
2022-09-02T02:21:40.780Z,14.71
2022-09-02T02:22:43.224Z,14.72
2022-09-02T02:23:45.139Z,14.67
2022-09-02T02:24:47.126Z,14.67
2022-09-02T02:25:48.943Z,14.67
2022-09-02T02:26:51.067Z,14.70
2022-09-02T02:27:53.282Z,14.66
2022-09-02T02:28:55.256Z,14.63
2022-09-02T02:29:57.477Z,14.63
2022-09-02T02:31:01.199Z,14.62
2022-09-02T02:32:03.725Z,14.62
2022-09-02T02:33:05.591Z,14.63
2022-09-02T02:34:07.493Z,14.65
2022-09-02T02:35:09.893Z,14.63
2022-09-02T02:36:11.765Z,14.60
2022-09-02T02:37:13.911Z,14.54
2022-09-02T02:38:16.121Z,14.53
2022-09-02T02:39:18.146Z,14.54
2022-09-02T02:40:21.402Z,14.55
2022-09-02T02:41:23.272Z,14.52
2022-09-02T02:42:25.041Z,14.50
2022-09-02T02:43:26.918Z,14.53
2022-09-02T02:44:29.649Z,14.50
2022-09-02T02:45:32.186Z,14.50
2022-09-02T02:46:35.901Z,14.48
2022-09-02T02:47:39.140Z,14.49
2022-09-02T02:48:41.050Z,14.50
2022-09-02T02:49:43.949Z,14.46
2022-09-02T02:50:45.698Z,14.48
2022-09-02T02:51:47.638Z,14.53
2022-09-02T02:52:49.634Z,14.45
2022-09-02T02:53:53.769Z,14.47
2022-09-02T02:54:57.601Z,14.44
2022-09-02T02:56:00.146Z,14.45
2022-09-02T02:57:03.163Z,14.46
2022-09-02T02:58:05.771Z,14.49
2022-09-02T02:59:07.736Z,14.52
2022-09-02T03:00:12.850Z,14.52
2022-09-02T03:01:14.677Z,14.46
2022-09-02T03:02:17.732Z,14.43
2022-09-02T03:03:19.999Z,14.44
2022-09-02T03:04:21.892Z,14.42
2022-09-02T03:05:23.917Z,14.45
2022-09-02T03:06:26.491Z,14.49
2022-09-02T03:07:29.057Z,14.48
2022-09-02T03:08:30.986Z,14.47
2022-09-02T03:09:32.958Z,14.46
2022-09-02T03:10:34.856Z,14.45
2022-09-02T03:11:36.670Z,14.42
2022-09-02T03:12:39.831Z,14.40
2022-09-02T03:13:41.649Z,14.39
2022-09-02T03:14:45.204Z,14.38
2022-09-02T03:15:47.525Z,14.43
2022-09-02T03:16:49.287Z,14.45
2022-09-02T03:17:51.373Z,14.46
2022-09-02T03:18:53.334Z,14.44
2022-09-02T03:19:55.165Z,14.48
2022-09-02T03:20:57.050Z,14.45
2022-09-02T03:21:59.433Z,14.45
2022-09-02T03:23:01.454Z,14.47
2022-09-02T03:24:03.426Z,14.48
2022-09-02T03:25:06.397Z,14.50
2022-09-02T03:26:11.410Z,14.52
2022-09-02T03:27:13.681Z,14.55
2022-09-02T03:28:15.663Z,14.53
2022-09-02T03:29:17.486Z,14.51
2022-09-02T03:30:21.006Z,14.49
2022-09-02T03:31:24.356Z,14.50
2022-09-02T03:32:26.411Z,14.52
2022-09-02T03:33:32.783Z,14.41
2022-09-02T03:34:34.678Z,14.39
2022-09-02T03:35:39.754Z,14.38
2022-09-02T03:36:44.578Z,14.37
2022-09-02T03:37:48.704Z,14.35
2022-09-02T03:38:50.668Z,14.35
2022-09-02T03:39:52.475Z,14.37
2022-09-02T03:40:54.459Z,14.37
2022-09-02T03:41:56.425Z,14.35
2022-09-02T03:43:00.465Z,14.37
2022-09-02T03:44:03.150Z,14.37
2022-09-02T03:45:06.695Z,14.36
2022-09-02T03:46:10.065Z,14.35
2022-09-02T03:47:14.354Z,14.33
2022-09-02T03:48:16.141Z,14.26
2022-09-02T03:49:18.010Z,14.26
2022-09-02T03:50:40.185Z,14.26
2022-09-02T03:51:43.378Z,14.25
2022-09-02T03:52:45.337Z,14.23
2022-09-02T03:53:47.216Z,14.21
2022-09-02T03:54:49.244Z,14.21
2022-09-02T03:55:51.043Z,14.20
2022-09-02T03:56:52.945Z,14.16
2022-09-02T03:57:54.894Z,14.15
2022-09-02T03:58:56.926Z,14.18
2022-09-02T03:59:58.736Z,14.18
2022-09-02T04:01:01.342Z,14.13
2022-09-02T04:02:06.443Z,14.14
2022-09-02T04:03:08.457Z,14.17
2022-09-02T04:04:10.286Z,14.16
2022-09-02T04:05:15.730Z,14.14
2022-09-02T04:06:20.518Z,14.14
2022-09-02T04:07:22.273Z,14.13
2022-09-02T04:08:24.647Z,14.12
2022-09-02T04:09:26.585Z,14.09
2022-09-02T04:10:28.903Z,14.08
2022-09-02T04:11:30.734Z,14.07
2022-09-02T04:12:32.580Z,14.04
2022-09-02T04:13:34.805Z,14.03
2022-09-02T04:14:36.626Z,13.99
2022-09-02T04:15:48.442Z,13.99
2022-09-02T04:16:50.364Z,14.00
2022-09-02T04:17:52.209Z,14.00
2022-09-02T04:18:54.611Z,14.00
2022-09-02T04:19:56.446Z,14.03
2022-09-02T04:21:00.034Z,14.04
2022-09-02T04:22:01.856Z,14.01
2022-09-02T04:23:04.388Z,13.96
2022-09-02T04:24:07.258Z,13.91
2022-09-02T04:25:10.054Z,13.93
2022-09-02T04:26:13.626Z,13.96
2022-09-02T04:27:15.432Z,13.93
2022-09-02T04:28:17.220Z,13.92
2022-09-02T04:29:19.300Z,13.89
2022-09-02T04:30:21.160Z,13.85
2022-09-02T04:31:25.924Z,13.85
2022-09-02T04:32:27.819Z,13.88
2022-09-02T04:33:29.618Z,13.91
2022-09-02T04:34:31.478Z,13.92
2022-09-02T04:35:33.337Z,13.89
2022-09-02T04:36:35.206Z,13.89
2022-09-02T04:37:37.077Z,13.82
2022-09-02T04:38:39.032Z,13.77
2022-09-02T04:39:40.979Z,13.71
2022-09-02T04:40:44.675Z,13.73
2022-09-02T04:41:46.537Z,13.72
2022-09-02T04:42:48.437Z,13.74
2022-09-02T04:43:50.944Z,13.76
2022-09-02T04:44:54.882Z,13.77
2022-09-02T04:45:57.845Z,13.76
2022-09-02T04:46:59.767Z,13.74
2022-09-02T04:48:01.695Z,13.75
2022-09-02T04:49:04.252Z,13.76
2022-09-02T04:50:06.811Z,13.80
2022-09-02T04:51:16.925Z,13.82
2022-09-02T04:52:19.329Z,13.83
2022-09-02T04:53:21.199Z,13.84
2022-09-02T04:54:23.117Z,13.86
2022-09-02T04:55:24.945Z,13.84
2022-09-02T04:56:28.006Z,13.82
2022-09-02T04:57:30.083Z,13.85
2022-09-02T04:58:31.925Z,13.87
2022-09-02T04:59:36.644Z,13.84
2022-09-02T05:00:39.778Z,13.85
2022-09-02T05:01:43.197Z,13.84
2022-09-02T05:02:45.266Z,13.87
2022-09-02T05:03:47.976Z,13.84
2022-09-02T05:04:50.178Z,13.83
2022-09-02T05:05:59.086Z,13.78
2022-09-02T05:07:03.830Z,13.81
2022-09-02T05:08:05.676Z,13.84
2022-09-02T05:09:08.805Z,13.86
2022-09-02T05:10:13.088Z,13.90
2022-09-02T05:11:20.652Z,13.89
2022-09-02T05:12:22.453Z,13.91
2022-09-02T05:13:24.886Z,13.90
2022-09-02T05:14:26.847Z,13.87
2022-09-02T05:15:32.109Z,13.90
2022-09-02T05:16:37.116Z,13.91
2022-09-02T05:17:38.961Z,13.96
2022-09-02T05:18:40.785Z,14.00
2022-09-02T05:19:42.665Z,14.02
2022-09-02T05:20:44.611Z,14.03
2022-09-02T05:21:47.333Z,14.07
2022-09-02T05:22:50.943Z,14.10
2022-09-02T05:23:54.520Z,14.10
2022-09-02T05:24:57.142Z,14.12
2022-09-02T05:25:59.054Z,14.14
2022-09-02T05:27:00.952Z,14.18
2022-09-02T05:28:02.799Z,14.19
2022-09-02T05:29:08.767Z,14.21
2022-09-02T05:30:10.816Z,14.23
2022-09-02T05:31:14.447Z,14.20
2022-09-02T05:32:16.461Z,14.16
2022-09-02T05:33:18.410Z,14.17
2022-09-02T05:34:20.287Z,14.16
2022-09-02T05:35:22.189Z,14.17
2022-09-02T05:36:24.025Z,14.18
2022-09-02T05:37:26.030Z,14.15
2022-09-02T05:38:27.930Z,14.17
2022-09-02T05:39:31.158Z,14.18
2022-09-02T05:40:34.916Z,14.18
2022-09-02T05:41:37.107Z,14.21
2022-09-02T05:42:39.982Z,14.23
2022-09-02T05:43:42.546Z,14.26
2022-09-02T05:44:45.360Z,14.25
2022-09-02T05:45:49.181Z,14.25
2022-09-02T05:46:51.065Z,14.17
2022-09-02T05:47:52.964Z,14.14
2022-09-02T05:49:07.916Z,14.16
2022-09-02T05:50:10.035Z,14.13
2022-09-02T05:51:16.085Z,14.14
2022-09-02T05:52:18.551Z,14.16
2022-09-02T05:53:20.512Z,14.16
2022-09-02T05:54:28.930Z,14.16
2022-09-02T05:55:30.708Z,14.21
2022-09-02T05:56:32.666Z,14.28
2022-09-02T05:57:34.417Z,14.30
2022-09-02T05:58:36.522Z,14.31
2022-09-02T05:59:40.461Z,14.33
2022-09-02T06:00:42.303Z,14.37
2022-09-02T06:01:44.526Z,14.39
2022-09-02T06:02:46.791Z,14.36
2022-09-02T06:03:48.893Z,14.34
2022-09-02T06:04:52.427Z,14.35
2022-09-02T06:05:55.745Z,14.31
2022-09-02T06:06:57.629Z,14.31
2022-09-02T06:07:59.503Z,14.29
2022-09-02T06:09:01.479Z,14.29
2022-09-02T06:10:03.338Z,14.32
2022-09-02T06:11:07.508Z,14.34
2022-09-02T06:12:09.325Z,14.34
2022-09-02T06:13:11.863Z,14.36
2022-09-02T06:14:14.347Z,14.36
2022-09-02T06:15:16.286Z,14.39
2022-09-02T06:16:19.892Z,14.43
2022-09-02T06:17:21.935Z,14.45
2022-09-02T06:18:24.296Z,14.49
2022-09-02T06:19:32.888Z,14.53
2022-09-02T06:20:34.914Z,14.52
2022-09-02T06:21:37.488Z,14.53
2022-09-02T06:22:39.451Z,14.52
2022-09-02T06:23:41.644Z,14.51
2022-09-02T06:24:43.570Z,14.52
2022-09-02T06:25:47.202Z,14.57
2022-09-02T06:26:49.575Z,14.62
2022-09-02T06:27:51.375Z,14.64
2022-09-02T06:28:53.264Z,14.63
2022-09-02T06:29:55.174Z,14.63
2022-09-02T06:30:58.143Z,14.67
2022-09-02T06:32:00.041Z,14.63
2022-09-02T06:33:04.802Z,14.56
2022-09-02T06:34:06.728Z,14.62
2022-09-02T06:35:10.137Z,14.63
2022-09-02T06:36:14.359Z,14.64
2022-09-02T06:37:16.280Z,14.66
2022-09-02T06:38:18.274Z,14.69
2022-09-02T06:39:21.575Z,14.69
2022-09-02T06:40:23.464Z,14.70
2022-09-02T06:41:29.940Z,14.73
2022-09-02T06:42:31.841Z,14.75
2022-09-02T06:43:42.467Z,14.77
2022-09-02T06:44:44.662Z,14.75
2022-09-02T06:45:46.708Z,14.77
2022-09-02T06:46:54.175Z,14.76
2022-09-02T06:47:56.431Z,14.76
2022-09-02T06:48:59.086Z,14.74
2022-09-02T06:50:00.887Z,14.75
2022-09-02T06:51:02.872Z,14.79
2022-09-02T06:52:05.860Z,14.83
2022-09-02T06:53:09.452Z,14.83
2022-09-02T06:54:14.212Z,14.82
2022-09-02T06:55:18.359Z,14.84
2022-09-02T06:56:20.203Z,14.86
2022-09-02T06:57:22.046Z,14.90
2022-09-02T06:58:26.799Z,14.95
2022-09-02T06:59:28.701Z,14.96
2022-09-02T07:00:31.976Z,15.00
2022-09-02T07:01:34.742Z,15.00
2022-09-02T07:02:37.475Z,14.98
2022-09-02T07:03:57.666Z,15.02
2022-09-02T07:05:11.822Z,15.09
2022-09-02T07:06:13.781Z,15.11
2022-09-02T07:07:15.938Z,15.15
2022-09-02T07:08:17.661Z,15.20
2022-09-02T07:09:20.833Z,15.22
2022-09-02T07:10:23.391Z,15.18
2022-09-02T07:11:25.251Z,15.14
2022-09-02T07:12:27.643Z,15.19
2022-09-02T07:13:29.538Z,15.24
2022-09-02T07:14:31.437Z,15.29
2022-09-02T07:15:33.559Z,15.34
2022-09-02T07:16:38.105Z,15.33
2022-09-02T07:17:40.058Z,15.35
2022-09-02T07:18:42.059Z,15.38
2022-09-02T07:19:44.870Z,15.38
2022-09-02T07:20:48.154Z,15.37
2022-09-02T07:21:50.109Z,15.36
2022-09-02T07:23:53.906Z,15.40
2022-09-02T07:24:55.949Z,15.39
2022-09-02T07:25:57.792Z,15.46
2022-09-02T07:26:59.586Z,15.48
2022-09-02T07:28:01.573Z,15.55
2022-09-02T07:29:04.138Z,15.60
2022-09-02T07:30:07.038Z,15.64
2022-09-02T07:31:12.131Z,15.67
2022-09-02T07:32:14.025Z,15.70
2022-09-02T07:33:16.471Z,15.70
2022-09-02T07:34:18.595Z,15.71
2022-09-02T07:35:20.409Z,15.66
2022-09-02T07:36:22.158Z,15.66
2022-09-02T07:37:24.304Z,15.69
2022-09-02T07:38:26.447Z,15.71
2022-09-02T07:39:28.220Z,15.71
2022-09-02T07:40:30.356Z,15.68
2022-09-02T07:41:32.786Z,15.74
2022-09-02T07:42:34.622Z,15.82
2022-09-02T07:43:37.767Z,15.87
2022-09-02T07:44:39.563Z,15.93
2022-09-02T07:45:43.644Z,16.00
2022-09-02T07:46:46.503Z,16.05
2022-09-02T07:47:49.877Z,16.09
2022-09-02T07:48:51.836Z,16.11
2022-09-02T07:51:15.417Z,16.16
2022-09-02T07:52:17.295Z,16.16
2022-09-02T07:53:19.621Z,16.16
2022-09-02T07:54:22.963Z,16.22
2022-09-02T07:55:25.871Z,16.24
2022-09-02T07:56:27.728Z,16.26
2022-09-02T07:57:29.597Z,16.30
2022-09-02T07:58:32.291Z,16.31
2022-09-02T07:59:35.181Z,16.34
2022-09-02T08:00:37.619Z,16.36
2022-09-02T08:01:39.953Z,16.42
2022-09-02T08:02:42.010Z,16.45
2022-09-02T08:03:45.346Z,16.47
2022-09-02T08:04:47.227Z,16.48
2022-09-02T08:05:49.217Z,16.48
2022-09-02T08:06:52.498Z,16.47
2022-09-02T08:07:54.365Z,16.51
2022-09-02T08:08:56.239Z,16.54
2022-09-02T08:10:01.354Z,16.54
2022-09-02T08:11:04.046Z,16.55
2022-09-02T08:12:06.422Z,16.45
2022-09-02T08:13:08.450Z,16.47
2022-09-02T08:14:12.331Z,16.50
2022-09-02T08:15:15.152Z,16.55
2022-09-02T08:16:17.839Z,16.57
2022-09-02T08:17:20.916Z,16.63
2022-09-02T08:18:23.217Z,16.64
2022-09-02T08:19:25.494Z,16.67
2022-09-02T08:20:28.035Z,16.73
2022-09-02T08:21:29.909Z,16.75
2022-09-02T08:22:35.828Z,16.74
2022-09-02T08:23:37.978Z,16.78
2022-09-02T08:24:39.970Z,16.79
2022-09-02T08:25:42.370Z,16.77
2022-09-02T08:26:44.250Z,16.79
2022-09-02T08:27:46.643Z,16.83
2022-09-02T08:28:48.525Z,16.85
2022-09-02T08:29:50.317Z,16.85
2022-09-02T08:30:52.926Z,16.85
2022-09-02T08:31:55.457Z,16.85
2022-09-02T08:32:57.566Z,16.88
2022-09-02T08:33:59.934Z,16.94
2022-09-02T08:35:03.193Z,16.96
2022-09-02T08:36:06.759Z,16.91
2022-09-02T08:37:08.616Z,16.94
2022-09-02T08:38:10.429Z,17.00
2022-09-02T08:39:12.436Z,17.00
2022-09-02T08:40:17.290Z,17.00
2022-09-02T08:41:23.643Z,17.01
2022-09-02T08:42:25.469Z,17.09
2022-09-02T08:43:29.567Z,17.14
2022-09-02T08:44:33.125Z,17.17
2022-09-02T08:45:39.141Z,17.21
2022-09-02T08:46:41.485Z,17.24
2022-09-02T08:47:47.490Z,17.30
2022-09-02T08:49:08.983Z,17.37
2022-09-02T08:50:14.319Z,17.45
2022-09-02T08:51:25.533Z,17.44
2022-09-02T08:52:43.390Z,17.42
2022-09-02T08:54:11.299Z,17.44
2022-09-02T08:55:22.855Z,17.50
2022-09-02T08:56:26.846Z,17.55
2022-09-02T08:57:29.055Z,17.59
2022-09-02T08:58:38.449Z,17.60
2022-09-02T09:00:51.593Z,17.62
2022-09-02T09:02:09.791Z,17.65
2022-09-02T09:03:20.396Z,17.69
2022-09-02T09:04:25.154Z,17.76
2022-09-02T09:05:35.656Z,17.83
2022-09-02T09:06:40.122Z,17.89
2022-09-02T09:08:00.237Z,17.97
2022-09-02T09:09:11.027Z,18.04
2022-09-02T09:10:25.806Z,18.12
2022-09-02T09:11:40.228Z,18.13
2022-09-02T09:12:49.949Z,18.17
2022-09-02T09:14:00.111Z,18.22
2022-09-02T09:15:12.316Z,18.27
2022-09-02T09:16:15.952Z,18.32
2022-09-02T09:17:24.038Z,18.37
2022-09-02T09:18:38.103Z,18.41
2022-09-02T09:19:45.909Z,18.49
2022-09-02T09:20:48.960Z,18.56
2022-09-02T09:21:50.837Z,18.62
2022-09-02T09:22:57.152Z,18.68
2022-09-02T09:24:01.863Z,18.70
2022-09-02T09:25:07.700Z,18.69
2022-09-02T09:26:13.959Z,18.71
2022-09-02T09:27:17.226Z,18.71
2022-09-02T09:28:19.080Z,18.75
2022-09-02T09:29:21.291Z,18.81
2022-09-02T09:30:23.623Z,18.87
2022-09-02T09:31:31.470Z,18.92
2022-09-02T09:32:35.313Z,18.96
2022-09-02T09:33:37.138Z,18.99
2022-09-02T09:34:54.521Z,19.04
2022-09-02T09:35:58.928Z,19.12
2022-09-02T09:37:00.734Z,19.18
2022-09-02T09:38:12.465Z,19.24
2022-09-02T09:39:22.158Z,19.31
2022-09-02T09:40:28.556Z,19.37
2022-09-02T09:41:30.405Z,19.42
2022-09-02T09:42:36.567Z,19.47
2022-09-02T09:43:38.354Z,19.52
2022-09-02T09:44:47.261Z,19.57
2022-09-02T09:45:50.286Z,19.63
2022-09-02T09:47:02.257Z,19.69
2022-09-02T09:48:31.982Z,19.73
2022-09-02T09:49:34.173Z,19.78
2022-09-02T09:50:36.106Z,19.85
2022-09-02T09:51:49.863Z,19.90
2022-09-02T09:52:52.282Z,19.96
2022-09-02T09:54:15.365Z,20.02
2022-09-02T09:55:24.370Z,20.05
2022-09-02T09:56:29.526Z,20.12
2022-09-02T09:57:35.743Z,20.20
2022-09-02T09:58:39.476Z,20.26
2022-09-02T09:59:47.574Z,20.33
2022-09-02T10:00:49.912Z,20.41
2022-09-02T10:01:52.299Z,20.48
2022-09-02T10:02:59.096Z,20.52
2022-09-02T10:04:43.363Z,20.55
2022-09-02T10:05:45.816Z,20.66
2022-09-02T10:06:49.188Z,20.71
2022-09-02T10:07:59.506Z,20.73
2022-09-02T10:09:02.929Z,20.80
2022-09-02T10:10:24.006Z,20.86
2022-09-02T10:11:27.161Z,20.93
2022-09-02T10:12:33.940Z,21.01
2022-09-02T10:13:37.121Z,21.05
2022-09-02T10:14:46.207Z,21.11
2022-09-02T10:16:08.296Z,21.18
2022-09-02T10:17:17.020Z,21.26
2022-09-02T10:18:31.455Z,21.33
2022-09-02T10:20:11.780Z,21.40
2022-09-02T10:21:22.508Z,21.48
2022-09-02T10:22:44.715Z,21.53
2022-09-02T10:24:11.326Z,21.64
2022-09-02T10:25:28.880Z,21.70
2022-09-02T10:26:38.238Z,21.74
2022-09-02T10:27:40.015Z,21.81
2022-09-02T10:28:41.799Z,21.87
2022-09-02T10:29:51.497Z,21.93
2022-09-02T10:31:17.372Z,21.96
2022-09-02T10:32:25.903Z,22.06
2022-09-02T10:33:36.635Z,22.14
2022-09-02T10:34:44.472Z,22.17
2022-09-02T10:35:47.488Z,22.18
2022-09-02T10:37:07.888Z,22.21
2022-09-02T10:38:19.743Z,22.21
2022-09-02T10:39:47.759Z,22.27
2022-09-02T10:40:53.223Z,22.35
2022-09-02T10:41:59.378Z,22.43
2022-09-02T10:43:01.218Z,22.48
2022-09-02T10:44:03.175Z,22.54
2022-09-02T10:45:24.611Z,22.43
2022-09-02T10:46:27.241Z,22.44
2022-09-02T10:47:39.197Z,22.50
2022-09-02T10:48:46.907Z,22.56
2022-09-02T10:50:07.020Z,22.64
2022-09-02T10:51:17.798Z,22.69
2022-09-02T10:52:40.833Z,22.80
2022-09-02T10:53:48.495Z,22.83
2022-09-02T10:55:06.993Z,22.87
2022-09-02T10:56:11.751Z,22.88
2022-09-02T10:57:22.870Z,22.96
2022-09-02T10:58:30.757Z,23.01
2022-09-02T10:59:40.376Z,22.99
2022-09-02T11:00:45.197Z,23.05
2022-09-02T11:01:49.179Z,23.14
2022-09-02T11:03:08.425Z,23.15
2022-09-02T11:04:28.270Z,23.17
2022-09-02T11:05:49.762Z,23.24
2022-09-02T11:07:02.518Z,23.27
2022-09-02T11:08:10.287Z,23.36
2022-09-02T11:09:24.264Z,23.41
2022-09-02T11:10:31.478Z,23.46
2022-09-02T11:11:57.138Z,23.47
2022-09-02T11:13:05.217Z,23.49
2022-09-02T11:14:07.664Z,23.48
2022-09-02T11:15:17.894Z,23.53
2022-09-02T11:16:38.563Z,23.55
2022-09-02T11:17:53.096Z,23.60
2022-09-02T11:19:03.901Z,23.67
2022-09-02T11:20:13.123Z,23.76
2022-09-02T11:21:15.132Z,23.83
2022-09-02T11:22:28.589Z,23.85
2022-09-02T11:23:46.964Z,23.94
2022-09-02T11:24:52.881Z,23.97
2022-09-02T11:26:01.846Z,24.03
2022-09-02T11:27:25.912Z,24.02
2022-09-02T11:28:42.351Z,24.09
2022-09-02T11:30:04.384Z,24.14
2022-09-02T11:31:10.542Z,24.15
2022-09-02T11:32:18.472Z,24.15
2022-09-02T11:33:29.416Z,24.19
2022-09-02T11:34:35.879Z,24.24
2022-09-02T11:35:39.649Z,24.24
2022-09-02T11:36:42.186Z,24.31
2022-09-02T11:38:07.236Z,24.40
2022-09-02T11:39:21.873Z,24.49
2022-09-02T11:40:38.917Z,24.52
2022-09-02T11:41:56.436Z,24.57
2022-09-02T11:42:58.422Z,24.57
2022-09-02T11:44:12.925Z,24.59
2022-09-02T11:45:20.596Z,24.58
2022-09-02T11:46:39.974Z,24.57
2022-09-02T11:48:04.828Z,24.50
2022-09-02T11:49:25.913Z,24.53
2022-09-02T11:50:33.662Z,24.61
2022-09-02T11:51:52.810Z,24.70
2022-09-02T11:52:54.649Z,24.82
2022-09-02T11:53:57.601Z,24.86
2022-09-02T11:55:06.545Z,24.91
2022-09-02T11:56:08.482Z,24.89
2022-09-02T11:57:14.366Z,24.89
2022-09-02T11:58:31.482Z,24.85
2022-09-02T11:59:51.741Z,24.95
2022-09-02T12:01:01.051Z,25.07
2022-09-02T12:02:03.078Z,25.04
2022-09-02T12:03:16.760Z,25.00
2022-09-02T12:05:51.756Z,25.15
2022-09-02T12:07:08.693Z,25.15
2022-09-02T12:08:16.565Z,25.25
2022-09-02T12:09:38.364Z,25.29
2022-09-02T12:10:47.939Z,25.28
2022-09-02T12:11:51.078Z,25.22
2022-09-02T12:12:56.145Z,25.24
2022-09-02T12:14:00.864Z,25.24
2022-09-02T12:15:06.885Z,25.25
2022-09-02T12:16:24.282Z,25.32
2022-09-02T12:17:45.783Z,25.39
2022-09-02T12:18:58.534Z,25.31
2022-09-02T12:20:00.717Z,25.39
2022-09-02T12:21:07.805Z,25.40
2022-09-02T12:22:15.997Z,25.39
2022-09-02T12:23:37.095Z,25.50
2022-09-02T12:24:54.355Z,25.57
2022-09-02T12:26:03.023Z,25.61
2022-09-02T12:27:06.409Z,25.66
2022-09-02T12:28:19.114Z,25.67
2022-09-02T12:29:24.354Z,25.68
2022-09-02T12:30:45.631Z,25.54
2022-09-02T12:31:49.413Z,25.59
2022-09-02T12:32:51.315Z,25.65
2022-09-02T12:33:53.866Z,25.72
2022-09-02T12:34:56.914Z,25.75
2022-09-02T12:35:59.975Z,25.72
2022-09-02T12:37:02.947Z,25.72
2022-09-02T12:38:10.964Z,25.75
2022-09-02T12:39:27.737Z,25.79
2022-09-02T12:40:32.928Z,25.83
2022-09-02T12:41:42.809Z,25.91
2022-09-02T12:42:46.677Z,25.99
2022-09-02T12:43:58.126Z,25.97
2022-09-02T12:44:59.890Z,26.06
2022-09-02T12:46:24.570Z,26.13
2022-09-02T12:47:31.307Z,26.15
2022-09-02T12:48:45.710Z,26.19
2022-09-02T12:49:50.038Z,26.17
2022-09-02T12:50:58.842Z,26.18
2022-09-02T12:52:02.983Z,26.12
2022-09-02T12:53:11.520Z,26.13
2022-09-02T12:54:15.344Z,26.18
2022-09-02T12:55:27.891Z,26.18
2022-09-02T12:56:29.723Z,26.15
2022-09-02T12:57:42.440Z,26.23
2022-09-02T12:58:50.465Z,26.27
2022-09-02T12:59:59.187Z,26.26
2022-09-02T13:01:13.910Z,26.34
2022-09-02T13:02:30.424Z,26.29
2022-09-02T13:03:38.367Z,26.22
2022-09-02T13:04:46.257Z,26.25
2022-09-02T13:05:50.971Z,26.28
2022-09-02T13:06:52.778Z,26.17
2022-09-02T13:08:09.713Z,26.10
2022-09-02T13:09:11.731Z,26.14
2022-09-02T13:10:26.817Z,26.03
2022-09-02T13:11:34.719Z,26.07
2022-09-02T13:12:56.052Z,26.14
2022-09-02T13:14:18.080Z,26.23
2022-09-02T13:15:24.117Z,26.17
2022-09-02T13:16:37.726Z,26.15
2022-09-02T13:18:05.653Z,26.18
2022-09-02T13:19:12.555Z,26.19
2022-09-02T13:20:15.029Z,26.24
2022-09-02T13:21:22.744Z,26.30
2022-09-02T13:22:31.237Z,26.24
2022-09-02T13:23:35.849Z,26.26
2022-09-02T13:24:53.766Z,26.27
2022-09-02T13:26:27.422Z,26.26
2022-09-02T13:27:41.423Z,26.28
2022-09-02T13:29:02.085Z,26.26
2022-09-02T13:30:06.843Z,26.35
2022-09-02T13:31:08.652Z,26.39
2022-09-02T13:32:10.456Z,26.43
2022-09-02T13:33:12.639Z,26.48
2022-09-02T13:34:14.574Z,26.49
2022-09-02T13:35:18.314Z,26.48
2022-09-02T13:36:30.854Z,26.40
2022-09-02T13:37:39.174Z,26.39
2022-09-02T13:38:41.104Z,26.41
2022-09-02T13:39:42.958Z,26.43
2022-09-02T13:40:46.141Z,26.38
2022-09-02T13:41:49.530Z,26.37
2022-09-02T13:42:54.406Z,26.39
2022-09-02T13:44:09.643Z,26.48
2022-09-02T13:45:16.127Z,26.62
2022-09-02T13:46:18.065Z,26.63
2022-09-02T13:47:22.789Z,26.70
2022-09-02T13:48:24.706Z,26.80
2022-09-02T13:49:28.532Z,26.81
2022-09-02T13:50:31.098Z,26.78
2022-09-02T13:51:34.216Z,26.73
2022-09-02T13:53:34.444Z,26.78
2022-09-02T13:55:23.781Z,26.93
2022-09-02T13:56:28.044Z,26.80
2022-09-02T13:57:31.667Z,26.80
2022-09-02T13:58:35.709Z,26.83
2022-09-02T13:59:47.587Z,26.83
2022-09-02T14:00:49.673Z,26.76
2022-09-02T14:01:51.710Z,26.81
2022-09-02T14:02:59.639Z,26.87
2022-09-02T14:04:06.537Z,26.85
2022-09-02T14:05:16.620Z,26.90
2022-09-02T14:06:19.937Z,26.87
2022-09-02T14:07:38.229Z,26.87
2022-09-02T14:08:40.213Z,26.77
2022-09-02T14:09:42.684Z,26.76